createdAt,value
2017-09-24T00:01:51.030Z,17.70
2017-09-24T00:04:18.639Z,16.00
2017-09-24T00:06:46.551Z,17.50
2017-09-24T00:09:14.190Z,17.00
2017-09-24T00:11:41.770Z,19.00
2017-09-24T00:14:09.351Z,16.63
2017-09-24T00:16:37.482Z,17.73
2017-09-24T00:19:05.057Z,17.97
2017-09-24T00:21:32.676Z,15.63
2017-09-24T00:24:00.298Z,16.50
2017-09-24T00:26:27.886Z,15.53
2017-09-24T00:28:55.818Z,20.00
2017-09-24T00:31:23.405Z,19.07
2017-09-24T00:33:51.023Z,15.43
2017-09-24T00:36:18.612Z,14.67
2017-09-24T00:38:46.200Z,16.40
2017-09-24T00:41:13.835Z,16.93
2017-09-24T00:43:41.707Z,16.60
2017-09-24T00:46:09.319Z,22.07
2017-09-24T00:48:37.141Z,16.80
2017-09-24T00:51:04.728Z,16.47
2017-09-24T00:53:32.333Z,16.93
2017-09-24T00:55:59.925Z,15.53
2017-09-24T00:58:27.545Z,16.77
2017-09-24T01:00:55.152Z,19.07
2017-09-24T01:03:22.727Z,16.10
2017-09-24T01:05:50.343Z,15.97
2017-09-24T01:08:17.927Z,15.33
2017-09-24T01:10:45.556Z,19.73
2017-09-24T01:13:13.151Z,17.23
2017-09-24T01:15:40.718Z,14.17
2017-09-24T01:18:08.323Z,15.00
2017-09-24T01:20:35.913Z,16.93
2017-09-24T01:23:03.551Z,18.03
2017-09-24T01:25:31.145Z,15.87
2017-09-24T01:27:58.767Z,16.07
2017-09-24T01:30:26.376Z,16.93
2017-09-24T01:32:53.989Z,14.20
2017-09-24T01:35:21.619Z,16.70
2017-09-24T01:37:49.208Z,13.70
2017-09-24T01:40:16.800Z,14.93
2017-09-24T01:42:44.423Z,13.77
2017-09-24T01:45:12.253Z,14.93
2017-09-24T01:47:39.871Z,13.40
2017-09-24T01:50:07.467Z,12.30
2017-09-24T01:52:35.045Z,15.47
2017-09-24T01:55:02.668Z,12.73
2017-09-24T01:57:30.268Z,13.77
2017-09-24T01:59:57.887Z,12.40
2017-09-24T02:02:25.795Z,12.70
2017-09-24T02:04:53.380Z,13.67
2017-09-24T02:07:20.983Z,11.70
2017-09-24T02:09:48.568Z,15.53
2017-09-24T02:12:16.196Z,12.27
2017-09-24T02:14:43.788Z,13.10
2017-09-24T02:17:11.668Z,12.23
2017-09-24T02:19:39.271Z,11.77
2017-09-24T02:22:06.851Z,11.93
2017-09-24T02:24:34.471Z,15.77
2017-09-24T02:27:02.321Z,11.80
2017-09-24T02:29:30.495Z,12.43
2017-09-24T02:31:58.111Z,11.77
2017-09-24T02:34:25.712Z,15.00
2017-09-24T02:36:53.331Z,11.80
2017-09-24T02:39:20.981Z,11.63
2017-09-24T02:41:48.573Z,12.00
2017-09-24T02:44:16.183Z,11.83
2017-09-24T02:46:43.759Z,12.50
2017-09-24T02:49:11.714Z,12.50
2017-09-24T02:51:39.298Z,12.93
2017-09-24T02:54:06.880Z,11.83
2017-09-24T02:56:34.489Z,11.37
2017-09-24T02:59:02.064Z,11.57
2017-09-24T03:01:30.017Z,11.70
2017-09-24T03:03:57.599Z,11.87
2017-09-24T03:06:25.184Z,11.53
2017-09-24T03:08:52.799Z,10.80
2017-09-24T03:11:20.384Z,11.77
2017-09-24T03:13:47.995Z,12.03
2017-09-24T03:16:15.579Z,11.73
2017-09-24T03:18:43.156Z,11.10
2017-09-24T03:21:10.780Z,11.80
2017-09-24T03:23:38.357Z,12.50
2017-09-24T03:26:05.978Z,12.03
2017-09-24T03:28:33.895Z,10.73
2017-09-24T03:31:01.469Z,10.90
2017-09-24T03:33:29.082Z,15.73
2017-09-24T03:35:56.673Z,15.07
2017-09-24T03:38:24.552Z,11.93
2017-09-24T03:40:52.120Z,11.30
2017-09-24T03:43:19.699Z,12.00
2017-09-24T03:45:47.340Z,11.67
2017-09-24T03:48:14.916Z,11.57
2017-09-24T03:50:42.540Z,12.47
2017-09-24T03:53:10.127Z,11.33
2017-09-24T03:55:37.710Z,11.60
2017-09-24T03:58:05.324Z,12.20
2017-09-24T04:00:32.915Z,14.00
2017-09-24T04:03:00.563Z,12.73
2017-09-24T04:05:28.438Z,12.40
2017-09-24T04:07:56.019Z,12.87
2017-09-24T04:10:23.962Z,13.03
2017-09-24T04:12:51.561Z,12.73
2017-09-24T04:15:19.179Z,12.73
2017-09-24T04:17:46.756Z,12.07
2017-09-24T04:20:14.352Z,12.57
2017-09-24T04:22:41.968Z,15.43
2017-09-24T04:25:09.551Z,13.40
2017-09-24T04:27:37.216Z,19.10
2017-09-24T04:30:04.838Z,15.27
2017-09-24T04:32:32.427Z,17.23
2017-09-24T04:35:00.032Z,15.80
2017-09-24T04:37:27.626Z,23.43
2017-09-24T04:39:55.511Z,17.30
2017-09-24T04:42:23.093Z,18.50
2017-09-24T04:44:50.944Z,17.70
2017-09-24T04:47:18.550Z,14.53
2017-09-24T04:49:46.135Z,13.20
2017-09-24T04:52:13.751Z,14.43
2017-09-24T04:54:41.323Z,16.50
2017-09-24T04:57:08.920Z,15.40
2017-09-24T04:59:36.552Z,16.40
2017-09-24T05:02:04.142Z,20.57
2017-09-24T05:04:31.768Z,18.13
2017-09-24T05:06:59.347Z,20.07
2017-09-24T05:09:26.920Z,20.47
2017-09-24T05:11:54.551Z,19.07
2017-09-24T05:14:22.138Z,19.83
2017-09-24T05:16:49.777Z,20.60
2017-09-24T05:19:17.369Z,23.03
2017-09-24T05:21:44.943Z,39.60
2017-09-24T05:24:12.593Z,29.67
2017-09-24T05:26:40.170Z,40.00
2017-09-24T05:29:07.796Z,34.97
2017-09-24T05:31:35.379Z,40.80
2017-09-24T05:34:03.077Z,45.53
2017-09-24T05:36:30.725Z,37.73
2017-09-24T05:38:58.315Z,45.00
2017-09-24T05:41:25.941Z,42.70
2017-09-24T05:43:53.831Z,43.20
2017-09-24T05:46:21.414Z,41.93
2017-09-24T05:48:49.043Z,40.40
2017-09-24T05:51:16.617Z,50.30
2017-09-24T05:53:44.191Z,49.93
2017-09-24T05:56:11.808Z,59.97
2017-09-24T05:58:39.408Z,57.70
2017-09-24T06:01:07.011Z,61.40
2017-09-24T06:03:34.642Z,55.80
2017-09-24T06:06:02.231Z,56.00
2017-09-24T06:08:29.828Z,65.13
2017-09-24T06:10:57.442Z,64.30
2017-09-24T06:13:25.007Z,57.43
2017-09-24T06:15:52.644Z,53.33
2017-09-24T06:18:20.302Z,53.80
2017-09-24T06:20:47.945Z,68.67
2017-09-24T06:23:15.555Z,57.70
2017-09-24T06:25:43.145Z,63.53
2017-09-24T06:28:10.779Z,68.90
2017-09-24T06:30:38.376Z,55.07
2017-09-24T06:33:06.277Z,55.77
2017-09-24T06:35:33.876Z,75.87
2017-09-24T06:38:01.822Z,68.90
2017-09-24T06:40:29.444Z,83.50
2017-09-24T06:42:57.024Z,74.83
2017-09-24T06:45:24.605Z,74.50
2017-09-24T06:47:52.211Z,77.30
2017-09-24T06:50:19.799Z,76.43
2017-09-24T06:52:47.447Z,85.83
2017-09-24T06:55:15.050Z,77.17
2017-09-24T06:57:42.635Z,78.30
2017-09-24T07:00:10.267Z,77.73
2017-09-24T07:02:37.846Z,100.73
2017-09-24T07:05:05.468Z,90.53
2017-09-24T07:07:33.056Z,124.37
2017-09-24T07:10:00.758Z,96.83
2017-09-24T07:12:28.358Z,101.00
2017-09-24T07:14:55.962Z,112.03
2017-09-24T07:17:23.596Z,136.70
2017-09-24T07:19:51.180Z,113.50
2017-09-24T07:22:18.763Z,123.07
2017-09-24T07:24:46.396Z,111.80
2017-09-24T07:27:13.980Z,109.77
2017-09-24T07:29:41.614Z,134.20
2017-09-24T07:32:09.235Z,106.40
2017-09-24T07:34:37.269Z,115.40
2017-09-24T07:37:04.892Z,127.07
2017-09-24T07:39:32.511Z,118.77
2017-09-24T07:42:00.140Z,118.63
2017-09-24T07:44:27.998Z,116.97
2017-09-24T07:46:55.587Z,111.87
2017-09-24T07:49:23.201Z,94.17
2017-09-24T07:51:50.766Z,99.40
2017-09-24T07:54:19.013Z,103.27
2017-09-24T07:56:46.604Z,105.37
2017-09-24T07:59:14.214Z,103.70
2017-09-24T08:01:41.835Z,113.07
2017-09-24T08:04:09.420Z,97.43
2017-09-24T08:06:37.374Z,97.73
2017-09-24T08:09:05.239Z,89.93
2017-09-24T08:11:33.165Z,104.23
2017-09-24T08:14:00.763Z,98.20
2017-09-24T08:16:28.406Z,100.17
2017-09-24T08:18:56.044Z,90.80
2017-09-24T08:21:23.628Z,81.83
2017-09-24T08:23:51.201Z,92.23
2017-09-24T08:26:18.810Z,90.33
2017-09-24T08:28:46.424Z,85.87
2017-09-24T08:31:14.111Z,89.47
2017-09-24T08:33:41.716Z,88.87
2017-09-24T08:36:09.307Z,75.13
2017-09-24T08:38:37.304Z,91.87
2017-09-24T08:41:04.924Z,80.43
2017-09-24T08:43:32.935Z,96.40
2017-09-24T08:46:00.520Z,87.73
2017-09-24T08:48:28.117Z,94.53
2017-09-24T08:50:55.759Z,103.67
2017-09-24T08:53:23.341Z,96.37
2017-09-24T08:55:51.012Z,95.00
2017-09-24T08:58:18.624Z,85.77
2017-09-24T09:00:46.224Z,84.53
2017-09-24T09:03:13.848Z,88.67
2017-09-24T09:05:41.448Z,98.10
2017-09-24T09:08:09.084Z,86.73
2017-09-24T09:10:36.708Z,95.23
2017-09-24T09:13:04.308Z,95.33
2017-09-24T09:15:31.928Z,88.70
2017-09-24T09:17:59.533Z,80.60
2017-09-24T09:20:27.534Z,83.20
2017-09-24T09:22:55.125Z,83.97
2017-09-24T09:25:22.723Z,78.93
2017-09-24T09:27:50.331Z,96.53
2017-09-24T09:30:17.924Z,87.43
2017-09-24T09:32:45.589Z,86.73
2017-09-24T09:35:14.988Z,82.93
2017-09-24T09:37:42.579Z,84.63
2017-09-24T09:40:10.183Z,91.60
2017-09-24T09:42:37.755Z,81.70
2017-09-24T09:45:17.213Z,78.37
2017-09-24T09:47:44.787Z,83.53
2017-09-24T09:50:12.400Z,75.40
2017-09-24T09:52:40.300Z,77.50
2017-09-24T09:55:07.955Z,78.63
2017-09-24T09:57:35.844Z,80.00
2017-09-24T10:00:03.476Z,82.00
2017-09-24T10:02:31.067Z,88.70
2017-09-24T10:05:00.083Z,74.20
2017-09-24T10:07:39.523Z,75.60
2017-09-24T10:10:17.593Z,86.30
2017-09-24T10:12:45.287Z,119.43
2017-09-24T10:15:12.928Z,87.50
2017-09-24T10:17:40.514Z,72.63
2017-09-24T10:20:08.248Z,85.00
2017-09-24T10:22:35.834Z,84.03
2017-09-24T10:25:04.152Z,78.13
2017-09-24T10:27:31.770Z,82.67
2017-09-24T10:30:11.107Z,81.67
2017-09-24T10:32:38.707Z,80.73
2017-09-24T10:35:06.326Z,91.03
2017-09-24T10:37:33.952Z,80.13
2017-09-24T10:40:01.557Z,86.70
2017-09-24T10:42:29.194Z,92.37
2017-09-24T10:44:56.779Z,90.13
2017-09-24T10:47:24.361Z,86.60
2017-09-24T10:49:51.999Z,98.70
2017-09-24T10:52:19.587Z,92.93
2017-09-24T10:54:47.216Z,96.17
2017-09-24T10:57:14.852Z,101.53
2017-09-24T10:59:42.544Z,100.40
2017-09-24T11:02:10.147Z,108.03
2017-09-24T11:04:37.743Z,88.20
2017-09-24T11:07:05.636Z,86.43
2017-09-24T11:09:33.393Z,78.90
2017-09-24T11:12:00.975Z,79.73
2017-09-24T11:14:28.924Z,83.50
2017-09-24T11:16:56.590Z,79.93
2017-09-24T11:19:24.243Z,88.20
2017-09-24T11:21:51.849Z,85.63
2017-09-24T11:24:19.444Z,90.60
2017-09-24T11:26:47.052Z,71.13
2017-09-24T11:29:14.997Z,78.40
2017-09-24T11:31:42.635Z,71.73
2017-09-24T11:34:10.529Z,95.60
2017-09-24T11:36:38.121Z,88.80
2017-09-24T11:39:05.752Z,69.20
2017-09-24T11:41:33.332Z,71.17
2017-09-24T11:44:00.962Z,77.93
2017-09-24T11:46:28.561Z,79.03
2017-09-24T11:48:56.180Z,92.10
2017-09-24T11:51:23.880Z,94.70
2017-09-24T11:53:51.480Z,92.03
2017-09-24T11:56:19.106Z,102.27
2017-09-24T11:58:47.701Z,90.27
2017-09-24T12:01:15.306Z,111.53
2017-09-24T12:03:42.914Z,100.43
2017-09-24T12:06:10.507Z,101.23
2017-09-24T12:08:38.135Z,103.33
2017-09-24T12:11:05.725Z,151.47
2017-09-24T12:13:33.318Z,122.13
2017-09-24T12:16:00.945Z,100.40
2017-09-24T12:18:28.883Z,108.10
2017-09-24T12:20:56.514Z,107.47
2017-09-24T12:23:24.106Z,94.27
2017-09-24T12:25:51.686Z,98.07
2017-09-24T12:28:19.323Z,79.33
2017-09-24T12:30:46.905Z,92.87
2017-09-24T12:33:14.827Z,94.33
2017-09-24T12:35:42.422Z,85.70
2017-09-24T12:38:10.020Z,93.97
2017-09-24T12:40:37.644Z,87.70
2017-09-24T12:43:05.283Z,91.33
2017-09-24T12:45:32.908Z,89.90
2017-09-24T12:48:00.489Z,87.83
2017-09-24T12:50:28.161Z,82.90
2017-09-24T12:52:55.896Z,88.67
2017-09-24T12:55:23.475Z,86.83
2017-09-24T12:57:51.101Z,97.00
2017-09-24T13:00:18.676Z,91.37
2017-09-24T13:02:46.263Z,94.10
2017-09-24T13:05:13.864Z,92.47
2017-09-24T13:07:42.714Z,87.43
2017-09-24T13:10:10.535Z,96.70
2017-09-24T13:12:38.272Z,90.10
2017-09-24T13:15:05.859Z,115.60
2017-09-24T13:17:33.984Z,95.23
2017-09-24T13:20:01.566Z,95.47
2017-09-24T13:22:29.201Z,98.50
2017-09-24T13:27:30.740Z,105.23
2017-09-24T13:29:58.335Z,103.33
2017-09-24T13:32:25.938Z,93.93
2017-09-24T13:34:53.550Z,88.47
2017-09-24T13:37:21.165Z,85.17
2017-09-24T13:39:48.802Z,97.97
2017-09-24T13:42:16.489Z,92.80
2017-09-24T13:44:44.352Z,93.40
2017-09-24T13:47:12.064Z,95.50
2017-09-24T13:49:39.655Z,105.63
2017-09-24T13:52:07.307Z,99.90
2017-09-24T13:54:35.208Z,103.57
2017-09-24T13:57:02.794Z,100.87
2017-09-24T13:59:30.413Z,91.80
2017-09-24T14:01:58.045Z,120.40
2017-09-24T14:04:25.701Z,109.23
2017-09-24T14:06:53.295Z,104.73
2017-09-24T14:09:21.756Z,140.17
2017-09-24T14:11:49.436Z,100.30
2017-09-24T14:14:17.039Z,105.87
2017-09-24T14:16:44.680Z,107.90
2017-09-24T14:19:12.284Z,128.40
2017-09-24T14:21:39.908Z,109.57
2017-09-24T14:24:07.790Z,109.23
2017-09-24T14:26:35.405Z,114.37
2017-09-24T14:29:03.315Z,119.70
2017-09-24T14:31:30.917Z,115.17
2017-09-24T14:33:58.506Z,103.07
2017-09-24T14:36:26.126Z,106.07
2017-09-24T14:38:53.967Z,111.40
2017-09-24T14:41:21.588Z,95.70
2017-09-24T14:43:49.185Z,102.70
2017-09-24T14:46:16.780Z,99.07
2017-09-24T14:48:44.388Z,96.77
2017-09-24T14:51:11.969Z,95.63
2017-09-24T14:53:39.597Z,95.07
2017-09-24T14:56:07.199Z,109.40
2017-09-24T14:58:34.813Z,101.53
2017-09-24T15:01:02.434Z,92.83
2017-09-24T15:03:30.001Z,95.17
2017-09-24T15:05:57.619Z,83.33
2017-09-24T15:08:25.215Z,89.80
2017-09-24T15:10:52.807Z,90.73
2017-09-24T15:13:20.419Z,90.80
2017-09-24T15:15:48.019Z,87.90
2017-09-24T15:18:15.641Z,81.70
2017-09-24T15:20:43.525Z,81.43
2017-09-24T15:23:11.494Z,84.20
2017-09-24T15:25:39.105Z,75.43
2017-09-24T15:28:06.713Z,77.40
2017-09-24T15:30:34.332Z,83.27
2017-09-24T15:33:01.924Z,74.93
2017-09-24T15:35:29.621Z,75.87
2017-09-24T15:37:57.461Z,79.80
2017-09-24T15:40:25.116Z,76.77
2017-09-24T15:42:52.744Z,84.50
2017-09-24T15:45:20.326Z,74.70
2017-09-24T15:47:47.920Z,74.40
2017-09-24T15:50:15.528Z,83.13
2017-09-24T15:52:43.107Z,80.50
2017-09-24T15:55:11.003Z,83.40
2017-09-24T15:57:38.713Z,79.57
2017-09-24T16:00:06.342Z,85.93
2017-09-24T16:02:33.986Z,80.07
2017-09-24T16:05:01.865Z,82.17
2017-09-24T16:07:29.514Z,88.97
2017-09-24T16:09:57.225Z,81.30
2017-09-24T16:12:24.822Z,74.40
2017-09-24T16:14:52.463Z,65.60
2017-09-24T16:17:20.069Z,79.37
2017-09-24T16:19:48.050Z,74.07
2017-09-24T16:22:15.912Z,70.27
2017-09-24T16:24:43.493Z,71.93
2017-09-24T16:27:11.119Z,76.43
2017-09-24T16:29:38.715Z,63.70
2017-09-24T16:32:06.348Z,69.10
2017-09-24T16:34:33.928Z,72.17
2017-09-24T16:37:01.523Z,72.70
2017-09-24T16:39:29.273Z,75.00
2017-09-24T16:41:56.855Z,73.57
2017-09-24T16:44:24.479Z,81.30
2017-09-24T16:46:52.167Z,69.93
2017-09-24T16:49:19.808Z,75.30
2017-09-24T16:51:47.522Z,67.07
2017-09-24T16:54:15.115Z,73.97
2017-09-24T16:56:42.747Z,68.67
2017-09-24T16:59:10.330Z,78.17
2017-09-24T17:01:37.932Z,81.13
2017-09-24T17:04:05.539Z,74.10
2017-09-24T17:06:33.125Z,79.47
2017-09-24T17:09:01.211Z,84.20
2017-09-24T17:11:28.806Z,77.97
2017-09-24T17:13:56.448Z,77.13
2017-09-24T17:16:24.200Z,87.47
2017-09-24T17:18:52.692Z,82.70
2017-09-24T17:21:20.419Z,82.40
2017-09-24T17:23:48.308Z,72.53
2017-09-24T17:26:15.901Z,85.23
2017-09-24T17:28:43.512Z,82.43
2017-09-24T17:31:11.088Z,68.13
2017-09-24T17:33:38.713Z,69.70
2017-09-24T17:36:06.312Z,69.80
2017-09-24T17:38:33.887Z,66.83
2017-09-24T17:41:01.491Z,68.73
2017-09-24T17:43:29.089Z,81.30
2017-09-24T17:45:56.791Z,72.97
2017-09-24T17:48:24.393Z,72.97
2017-09-24T17:50:51.971Z,87.67
2017-09-24T17:53:19.819Z,79.00
2017-09-24T17:55:47.432Z,99.77
2017-09-24T17:58:15.062Z,74.70
2017-09-24T18:00:42.677Z,76.27
2017-09-24T18:03:10.293Z,74.27
2017-09-24T18:05:37.907Z,78.30
2017-09-24T18:08:05.540Z,84.80
2017-09-24T18:10:33.121Z,76.97
2017-09-24T18:13:00.747Z,91.30
2017-09-24T18:15:28.363Z,91.17
2017-09-24T18:17:55.946Z,90.67
2017-09-24T18:20:23.847Z,82.37
2017-09-24T18:22:51.712Z,94.57
2017-09-24T18:25:19.515Z,100.70
2017-09-24T18:27:47.132Z,97.20
2017-09-24T18:30:14.730Z,97.63
2017-09-24T18:32:42.311Z,104.17
2017-09-24T18:35:09.925Z,104.00
2017-09-24T18:37:37.622Z,87.27
2017-09-24T18:40:05.272Z,89.27
2017-09-24T18:42:33.131Z,94.87
2017-09-24T18:45:00.723Z,87.83
2017-09-24T18:47:28.516Z,85.63
2017-09-24T18:49:56.224Z,85.90
2017-09-24T18:52:23.940Z,83.47
2017-09-24T18:54:51.722Z,89.93
2017-09-24T18:57:19.346Z,78.60
2017-09-24T18:59:46.977Z,83.90
2017-09-24T19:02:14.547Z,72.40
2017-09-24T19:04:42.243Z,79.27
2017-09-24T19:07:09.824Z,80.80
2017-09-24T19:09:37.440Z,77.50
2017-09-24T19:12:05.101Z,76.17
2017-09-24T19:14:32.752Z,73.03
2017-09-24T19:17:00.464Z,64.70
2017-09-24T19:19:28.304Z,67.90
2017-09-24T19:21:56.277Z,58.47
2017-09-24T19:24:23.903Z,61.70
2017-09-24T19:26:51.483Z,65.53
2017-09-24T19:29:19.120Z,66.30
2017-09-24T19:31:46.758Z,66.83
2017-09-24T19:34:14.479Z,64.50
2017-09-24T19:36:42.214Z,59.97
2017-09-24T19:39:09.810Z,56.70
2017-09-24T19:46:24.466Z,57.57
2017-09-24T19:48:52.084Z,59.80
2017-09-24T19:51:19.693Z,59.67
2017-09-24T19:53:47.323Z,56.87
2017-09-24T19:56:14.915Z,65.80
2017-09-24T19:58:42.583Z,53.73
2017-09-24T20:01:10.233Z,61.03
2017-09-24T20:03:37.816Z,67.07
2017-09-24T20:06:05.458Z,64.93
2017-09-24T20:08:33.078Z,61.93
2017-09-24T20:11:00.679Z,57.70
2017-09-24T20:13:28.312Z,58.47
2017-09-24T20:15:55.904Z,54.73
2017-09-24T20:18:23.528Z,49.00
2017-09-24T20:20:51.122Z,55.77
2017-09-24T20:23:18.718Z,68.13
2017-09-24T20:25:46.327Z,58.50
2017-09-24T20:28:13.916Z,54.40
2017-09-24T20:30:41.563Z,60.07
2017-09-24T20:33:09.156Z,58.33
2017-09-24T20:35:36.763Z,57.23
2017-09-24T20:38:04.408Z,63.83
2017-09-24T20:40:32.009Z,58.33
2017-09-24T20:42:59.688Z,54.43
2017-09-24T20:45:27.280Z,53.60
2017-09-24T20:47:54.875Z,52.73
2017-09-24T20:50:22.475Z,56.10
2017-09-24T20:52:50.074Z,50.07
2017-09-24T20:55:18.016Z,55.70
2017-09-24T20:57:45.884Z,54.70
2017-09-24T21:00:13.779Z,64.07
2017-09-24T21:02:41.498Z,69.73
2017-09-24T21:05:09.071Z,58.17
2017-09-24T21:07:36.700Z,63.57
2017-09-24T21:10:04.280Z,62.80
2017-09-24T21:12:31.885Z,66.97
2017-09-24T21:14:59.492Z,68.53
2017-09-24T21:17:27.392Z,63.53
2017-09-24T21:19:55.365Z,60.67
2017-09-24T21:22:22.960Z,56.97
2017-09-24T21:24:50.552Z,58.67
2017-09-24T21:27:18.160Z,60.10
2017-09-24T21:29:45.773Z,62.90
2017-09-24T21:32:13.682Z,61.53
2017-09-24T21:34:41.271Z,61.77
2017-09-24T21:37:08.872Z,63.00
2017-09-24T21:39:36.766Z,58.83
2017-09-24T21:42:04.343Z,65.93
2017-09-24T21:44:31.962Z,59.77
2017-09-24T21:46:59.540Z,70.70
2017-09-24T21:49:27.419Z,60.30
2017-09-24T21:51:55.032Z,60.40
2017-09-24T21:54:22.951Z,63.73
2017-09-24T21:56:50.871Z,54.73
2017-09-24T21:59:18.456Z,62.27
2017-09-24T22:01:46.355Z,61.53
2017-09-24T22:04:13.972Z,64.23
2017-09-24T22:06:41.556Z,70.60
2017-09-24T22:09:09.443Z,67.40
2017-09-24T22:11:37.023Z,67.83
2017-09-24T22:14:04.747Z,58.00
2017-09-24T22:16:32.391Z,63.20
2017-09-24T22:18:59.974Z,56.33
2017-09-24T22:21:27.600Z,60.93
2017-09-24T22:23:55.174Z,65.80
2017-09-24T22:26:22.747Z,65.67
2017-09-24T22:28:50.353Z,66.70
2017-09-24T22:31:17.939Z,69.63
2017-09-24T22:33:45.573Z,58.93
2017-09-24T22:36:13.156Z,62.80
2017-09-24T22:38:40.744Z,62.13
2017-09-24T22:41:08.653Z,58.27
2017-09-24T22:43:36.243Z,61.13
2017-09-24T22:46:03.877Z,75.47
2017-09-24T22:48:31.467Z,59.47
2017-09-24T22:50:59.067Z,58.40
2017-09-24T22:53:26.968Z,59.27
2017-09-24T22:55:54.547Z,57.57
2017-09-24T22:58:22.184Z,61.83
2017-09-24T23:00:49.768Z,57.90
2017-09-24T23:03:17.340Z,55.43
2017-09-24T23:05:44.956Z,66.37
2017-09-24T23:08:12.532Z,62.87
2017-09-24T23:10:40.316Z,63.90
2017-09-24T23:13:08.182Z,56.47
2017-09-24T23:15:35.763Z,59.97
2017-09-24T23:18:03.365Z,56.87
2017-09-24T23:20:30.971Z,63.93
2017-09-24T23:22:58.589Z,64.67
2017-09-24T23:25:26.163Z,62.23
2017-09-24T23:27:53.756Z,58.60
2017-09-24T23:30:21.361Z,62.90
2017-09-24T23:32:48.987Z,63.60
2017-09-24T23:35:16.630Z,59.37
2017-09-24T23:37:44.207Z,65.33
2017-09-24T23:40:11.785Z,65.13
2017-09-24T23:42:39.405Z,60.00
2017-09-24T23:45:06.988Z,61.57
2017-09-24T23:47:34.607Z,57.80
2017-09-24T23:50:02.198Z,70.50
2017-09-24T23:52:29.780Z,62.67
2017-09-24T23:54:57.409Z,60.83
2017-09-24T23:57:24.989Z,54.83
2017-09-24T23:59:52.611Z,61.20
